createdAt,value
2019-01-10T00:00:40.341Z,1.21
2019-01-10T00:06:44.973Z,1.17
2019-01-10T00:12:49.688Z,1.29
2019-01-10T00:18:54.329Z,1.21
2019-01-10T00:24:59.038Z,1.31
2019-01-10T00:31:03.846Z,1.25
2019-01-10T00:37:08.418Z,1.40
2019-01-10T00:43:13.124Z,1.37
2019-01-10T00:49:17.780Z,1.45
2019-01-10T00:55:22.509Z,1.35
2019-01-10T01:01:27.045Z,1.44
2019-01-10T01:07:31.740Z,1.46
2019-01-10T01:13:36.303Z,1.46
2019-01-10T01:19:40.878Z,1.42
2019-01-10T01:25:45.517Z,1.37
2019-01-10T01:31:50.098Z,1.30
2019-01-10T01:37:54.725Z,1.36
2019-01-10T01:43:59.287Z,1.26
2019-01-10T01:50:06.317Z,1.28
2019-01-10T01:56:11.024Z,1.35
2019-01-10T02:02:15.791Z,1.32
2019-01-10T02:08:20.427Z,1.25
2019-01-10T02:14:24.987Z,1.28
2019-01-10T02:20:29.606Z,1.28
2019-01-10T02:26:34.151Z,1.29
2019-01-10T02:32:38.697Z,1.22
2019-01-10T02:38:43.258Z,1.24
2019-01-10T02:44:47.802Z,1.26
2019-01-10T02:50:52.361Z,1.35
2019-01-10T02:56:56.913Z,1.25
2019-01-10T03:03:01.549Z,1.32
2019-01-10T03:09:09.370Z,1.22
2019-01-10T03:15:14.132Z,1.30
2019-01-10T03:21:18.727Z,1.37
2019-01-10T03:27:23.287Z,1.22
2019-01-10T03:33:27.843Z,1.34
2019-01-10T03:39:32.379Z,1.30
2019-01-10T03:45:37.002Z,1.17
2019-01-10T03:51:41.553Z,1.24
2019-01-10T03:57:46.167Z,1.14
2019-01-10T04:03:50.735Z,1.13
2019-01-10T04:09:55.355Z,1.09
2019-01-10T04:15:59.984Z,1.08
2019-01-10T04:22:04.605Z,0.95
2019-01-10T04:28:09.152Z,1.06
2019-01-10T04:34:13.789Z,0.93
2019-01-10T04:40:20.913Z,0.95
2019-01-10T04:46:25.528Z,0.88
2019-01-10T04:52:30.073Z,0.95
2019-01-10T04:58:34.615Z,0.99
2019-01-10T05:04:39.233Z,1.01
2019-01-10T05:10:43.787Z,0.80
2019-01-10T05:16:48.370Z,0.71
2019-01-10T05:22:52.970Z,0.80
2019-01-10T05:28:57.531Z,0.74
2019-01-10T05:35:02.274Z,0.54
2019-01-10T05:41:06.968Z,0.52
2019-01-10T05:47:11.540Z,0.75
2019-01-10T05:53:16.104Z,0.70
2019-01-10T05:59:20.648Z,0.75
2019-01-10T06:05:25.341Z,0.71
2019-01-10T06:11:29.964Z,0.66
2019-01-10T06:17:34.601Z,0.69
2019-01-10T06:23:39.249Z,0.80
2019-01-10T06:29:43.813Z,0.84
2019-01-10T06:35:48.519Z,0.77
2019-01-10T06:41:53.165Z,0.89
2019-01-10T06:47:57.718Z,0.92
2019-01-10T06:54:02.383Z,0.91
2019-01-10T07:00:19.810Z,0.94
2019-01-10T07:06:24.404Z,1.03
2019-01-10T07:12:29.034Z,1.05
2019-01-10T07:18:33.604Z,1.00
2019-01-10T07:24:38.167Z,1.03
2019-01-10T07:30:42.795Z,0.96
2019-01-10T07:36:50.589Z,0.87
2019-01-10T07:42:55.197Z,1.03
2019-01-10T07:48:59.743Z,1.05
2019-01-10T07:55:04.637Z,1.05
2019-01-10T08:01:09.210Z,1.14
2019-01-10T08:07:13.860Z,1.22
2019-01-10T08:13:19.618Z,1.38
2019-01-10T08:19:24.240Z,1.21
2019-01-10T08:25:28.864Z,1.48
2019-01-10T08:31:33.434Z,1.60
2019-01-10T08:37:37.987Z,1.62
2019-01-10T08:43:42.696Z,1.71
2019-01-10T08:49:47.256Z,1.89
2019-01-10T08:55:51.966Z,2.02
2019-01-10T09:01:56.537Z,1.93
2019-01-10T09:08:01.093Z,1.87
2019-01-10T09:14:05.727Z,2.01
2019-01-10T09:20:13.995Z,1.92
2019-01-10T09:26:18.610Z,1.99
2019-01-10T09:32:23.179Z,1.96
2019-01-10T09:38:27.800Z,2.01
2019-01-10T09:44:32.372Z,1.93
2019-01-10T09:50:36.947Z,1.89
2019-01-10T09:56:41.502Z,2.03
2019-01-10T10:02:46.205Z,1.83
2019-01-10T10:08:50.802Z,1.97
2019-01-10T10:14:55.431Z,1.94
2019-01-10T10:21:00.013Z,1.87
2019-01-10T10:27:04.913Z,1.97
2019-01-10T10:33:09.482Z,2.04
2019-01-10T10:39:14.051Z,2.09
2019-01-10T10:45:20.421Z,2.08
2019-01-10T10:51:25.135Z,2.21
2019-01-10T10:57:29.719Z,2.24
2019-01-10T11:03:34.336Z,2.29
2019-01-10T11:09:38.971Z,2.48
2019-01-10T11:15:43.518Z,2.51
2019-01-10T11:21:48.154Z,2.42
2019-01-10T11:27:52.792Z,2.28
2019-01-10T11:33:57.477Z,2.39
2019-01-10T11:40:02.030Z,2.10
2019-01-10T11:46:06.816Z,1.85
2019-01-10T11:52:11.442Z,1.84
2019-01-10T11:58:15.988Z,1.86
2019-01-10T12:04:20.551Z,2.09
2019-01-10T12:10:25.242Z,2.07
2019-01-10T12:16:29.800Z,2.12
2019-01-10T12:22:34.422Z,2.14
2019-01-10T12:28:39.055Z,2.10
2019-01-10T12:34:43.612Z,2.10
2019-01-10T12:40:48.312Z,2.20
2019-01-10T12:46:52.929Z,2.00
2019-01-10T12:52:57.617Z,2.26
2019-01-10T12:59:02.315Z,2.44
2019-01-10T13:05:07.918Z,2.37
2019-01-10T13:11:12.554Z,2.32
2019-01-10T13:17:17.188Z,2.29
2019-01-10T13:23:21.815Z,2.12
2019-01-10T13:29:26.445Z,2.20
2019-01-10T13:35:31.017Z,1.99
2019-01-10T13:41:35.638Z,2.05
2019-01-10T13:47:41.647Z,2.25
2019-01-10T13:53:46.178Z,2.34
2019-01-10T13:59:50.815Z,2.20
2019-01-10T14:05:55.437Z,2.07
2019-01-10T14:12:00.057Z,2.11
2019-01-10T14:18:05.373Z,1.90
2019-01-10T14:24:09.917Z,1.84
2019-01-10T14:30:21.899Z,1.86
2019-01-10T14:36:26.520Z,1.99
2019-01-10T14:42:31.953Z,2.07
2019-01-10T14:48:36.577Z,2.00
2019-01-10T14:54:41.138Z,2.01
2019-01-10T15:00:45.793Z,1.89
2019-01-10T15:06:51.849Z,1.92
2019-01-10T15:12:56.544Z,1.87
2019-01-10T15:19:01.777Z,1.73
2019-01-10T15:25:07.003Z,1.45
2019-01-10T15:31:11.573Z,1.25
2019-01-10T15:37:16.136Z,1.29
2019-01-10T15:43:20.756Z,1.23
2019-01-10T15:49:25.303Z,1.16
2019-01-10T15:55:30.002Z,1.12
2019-01-10T16:01:34.685Z,1.20
2019-01-10T16:07:39.263Z,1.13
2019-01-10T16:13:43.870Z,1.14
2019-01-10T16:19:48.426Z,1.18
2019-01-10T16:25:52.997Z,1.26
2019-01-10T16:31:57.624Z,1.16
2019-01-10T16:38:02.336Z,0.97
2019-01-10T16:44:07.029Z,1.17
2019-01-10T16:50:14.571Z,1.06
2019-01-10T16:56:19.137Z,1.08
2019-01-10T17:02:24.076Z,1.06
2019-01-10T17:08:28.625Z,0.99
2019-01-10T17:14:33.183Z,1.18
2019-01-10T17:20:37.743Z,1.08
2019-01-10T17:26:42.293Z,1.00
2019-01-10T17:32:46.929Z,0.94
2019-01-10T17:38:52.054Z,0.95
2019-01-10T17:44:56.596Z,0.94
2019-01-10T17:51:01.138Z,0.92
2019-01-10T17:57:05.684Z,0.75
2019-01-10T18:03:10.237Z,0.76
2019-01-10T18:09:14.803Z,0.71
2019-01-10T18:15:24.994Z,0.47
2019-01-10T18:21:29.550Z,0.44
2019-01-10T18:27:34.127Z,0.68
2019-01-10T18:33:38.696Z,0.72
2019-01-10T18:39:43.252Z,0.71
2019-01-10T18:45:47.803Z,0.74
2019-01-10T18:51:52.377Z,0.85
2019-01-10T18:57:56.946Z,0.98
2019-01-10T19:04:01.521Z,1.03
2019-01-10T19:10:10.624Z,0.97
2019-01-10T19:16:15.166Z,1.04
2019-01-10T19:22:19.864Z,1.26
2019-01-10T19:28:24.415Z,1.10
2019-01-10T19:34:28.978Z,1.06
2019-01-10T19:40:33.591Z,1.10
2019-01-10T19:46:38.143Z,1.13
2019-01-10T19:52:42.780Z,1.16
2019-01-10T19:58:47.348Z,1.27
2019-01-10T20:04:51.913Z,1.19
2019-01-10T20:10:56.680Z,1.41
2019-01-10T20:17:01.231Z,1.32
2019-01-10T20:23:07.185Z,1.21
2019-01-10T20:29:11.750Z,1.08
2019-01-10T20:35:16.659Z,1.11
2019-01-10T20:41:21.305Z,1.04
2019-01-10T20:47:25.861Z,1.13
2019-01-10T20:53:30.477Z,0.94
2019-01-10T20:59:35.037Z,1.08
2019-01-10T21:05:39.611Z,0.83
2019-01-10T21:11:44.173Z,0.87
2019-01-10T21:17:49.330Z,0.78
2019-01-10T21:23:53.955Z,0.89
2019-01-10T21:29:58.538Z,0.88
2019-01-10T21:36:03.096Z,0.94
2019-01-10T21:42:07.905Z,0.91
2019-01-10T21:48:12.595Z,1.03
2019-01-10T21:54:17.246Z,1.07
2019-01-10T22:00:28.209Z,1.13
2019-01-10T22:06:32.768Z,1.18
2019-01-10T22:12:37.388Z,1.10
2019-01-10T22:18:41.995Z,0.94
2019-01-10T22:24:46.577Z,1.05
2019-01-10T22:30:52.439Z,1.20
2019-01-10T22:36:57.016Z,1.24
2019-01-10T22:43:01.609Z,1.21
2019-01-10T22:49:06.233Z,1.28
2019-01-10T22:55:13.365Z,1.43
2019-01-10T23:01:27.117Z,1.32
2019-01-10T23:07:31.728Z,1.40
2019-01-10T23:13:36.292Z,1.30
2019-01-10T23:19:46.078Z,1.34
2019-01-10T23:25:55.352Z,1.33
2019-01-10T23:32:03.199Z,1.37
2019-01-10T23:38:09.096Z,1.37
2019-01-10T23:44:13.855Z,1.36
2019-01-10T23:50:18.455Z,1.36
2019-01-10T23:56:23.027Z,1.42
